Time;durP1;ratioP1;P1;durP2;ratioP2;P2;SDS_P1;SDS_P2;PMS_P1;PMS_P2;Temp;Humidity;BMP_temperature;BMP_pressure;BME280_temperature;BME280_humidity;BME280_pressure;Samples;Min_cycle;Max_cycle;Signal;HPM_P1;HPM_P2
2023/08/05 00:01:24;;;;;;;11.85;4.32;;;13.10;99.90;;;;;;5042730;28;20018;-92
2023/08/05 00:03:49;;;;;;;11.23;3.72;;;13.10;99.90;;;;;;5035671;28;20066;-93
2023/08/05 00:06:15;;;;;;;8.40;3.53;;;13.10;99.90;;;;;;5036578;28;20056;-94
2023/08/05 00:08:41;;;;;;;12.80;4.78;;;13.10;99.90;;;;;;5036147;28;20033;-93
2023/08/05 00:11:06;;;;;;;15.43;5.00;;;13.10;99.90;;;;;;5036840;28;20036;-92
2023/08/05 00:13:34;;;;;;;13.00;5.45;;;13.10;99.90;;;;;;5035917;28;20379;-92
2023/08/05 00:16:05;;;;;;;14.07;5.57;;;13.00;99.90;;;;;;5035777;28;20152;-94
2023/08/05 00:18:30;;;;;;;10.50;5.47;;;12.90;99.90;;;;;;5036854;28;20025;-92
2023/08/05 00:20:56;;;;;;;17.45;5.93;;;12.90;99.90;;;;;;5044613;28;20117;-93
2023/08/05 00:23:22;;;;;;;16.70;5.10;;;12.80;99.90;;;;;;5048015;28;20049;-92
2023/08/05 00:25:47;;;;;;;14.95;5.22;;;12.80;99.90;;;;;;5046124;28;20483;-93
2023/08/05 00:28:13;;;;;;;20.15;5.65;;;12.80;99.90;;;;;;5045510;28;20041;-93
2023/08/05 00:30:39;;;;;;;12.30;4.78;;;12.80;99.90;;;;;;5041139;28;20072;-93
2023/08/05 00:33:04;;;;;;;14.73;4.90;;;12.80;99.90;;;;;;5039668;28;20056;-93
2023/08/05 00:35:30;;;;;;;18.08;6.13;;;12.80;99.90;;;;;;5046772;28;20022;-93
2023/08/05 00:37:56;;;;;;;11.65;5.22;;;12.80;99.90;;;;;;5046543;28;20101;-93
2023/08/05 00:40:21;;;;;;;13.82;4.32;;;12.80;99.90;;;;;;5037905;28;20364;-93
2023/08/05 00:42:47;;;;;;;13.90;4.50;;;12.90;99.90;;;;;;5037055;28;20030;-93
2023/08/05 00:45:14;;;;;;;9.25;4.00;;;12.90;99.90;;;;;;5037099;28;20037;-94
2023/08/05 00:47:42;;;;;;;13.50;5.55;;;12.90;99.90;;;;;;5037634;28;20030;-94
2023/08/05 00:50:10;;;;;;;14.20;4.80;;;12.90;99.90;;;;;;5021092;28;20034;-93
2023/08/05 00:52:37;;;;;;;16.35;5.43;;;12.80;99.90;;;;;;5037176;28;20025;-93
2023/08/05 00:55:05;;;;;;;16.83;6.03;;;12.80;99.90;;;;;;5036757;28;20022;-94
2023/08/05 00:57:33;;;;;;;11.52;4.78;;;12.70;99.90;;;;;;5035972;28;20072;-93
2023/08/05 00:59:58;;;;;;;11.55;4.90;;;12.70;99.90;;;;;;5035974;28;20075;-94
2023/08/05 01:02:24;;;;;;;16.90;5.00;;;12.70;99.90;;;;;;5036597;28;20029;-94
2023/08/05 01:04:50;;;;;;;11.38;4.70;;;12.70;99.90;;;;;;5035228;28;20026;-92
2023/08/05 01:07:18;;;;;;;11.25;4.30;;;12.70;99.90;;;;;;5035910;28;20437;-93
2023/08/05 01:09:45;;;;;;;13.68;4.45;;;12.70;99.90;;;;;;5039832;28;20044;-94
2023/08/05 01:12:10;;;;;;;14.23;4.45;;;12.70;99.90;;;;;;5051748;28;20052;-94
2023/08/05 01:14:36;;;;;;;12.98;4.15;;;12.70;99.90;;;;;;5036082;28;20025;-93
2023/08/05 01:17:02;;;;;;;12.65;4.10;;;12.70;99.90;;;;;;5018333;28;20514;-93
2023/08/05 01:19:29;;;;;;;11.35;4.38;;;12.70;99.90;;;;;;5033959;28;20017;-93
2023/08/05 01:22:18;;;;;;;13.50;5.28;;;12.70;99.90;;;;;;5018687;28;20029;-93
2023/08/05 01:25:15;;;;;;;12.40;5.55;;;12.70;99.90;;;;;;5035041;28;20041;-93
2023/08/05 01:27:42;;;;;;;17.48;5.65;;;12.70;99.90;;;;;;5037149;28;20036;-94
2023/08/05 01:30:09;;;;;;;11.57;5.18;;;12.60;99.90;;;;;;5037236;28;20478;-94
2023/08/05 01:32:36;;;;;;;14.25;5.68;;;12.60;99.90;;;;;;5035738;28;20025;-93
2023/08/05 01:35:02;;;;;;;16.50;5.72;;;12.60;99.90;;;;;;5036967;28;20112;-93
2023/08/05 01:37:27;;;;;;;11.90;5.50;;;12.50;99.90;;;;;;5046876;28;20034;-93
2023/08/05 01:39:53;;;;;;;13.20;6.10;;;12.50;99.90;;;;;;5047969;28;20044;-94
2023/08/05 01:42:21;;;;;;;10.32;5.30;;;12.50;99.90;;;;;;5045772;28;20029;-93
2023/08/05 01:44:47;;;;;;;14.80;5.72;;;12.50;99.90;;;;;;5035367;28;20033;-92
2023/08/05 01:47:12;;;;;;;15.10;5.68;;;12.50;99.90;;;;;;5034831;28;20167;-94
2023/08/05 01:49:38;;;;;;;12.02;5.55;;;12.40;99.90;;;;;;5034132;28;20490;-93
2023/08/05 01:52:04;;;;;;;15.68;5.32;;;12.40;99.90;;;;;;5034012;28;20025;-94
2023/08/05 01:54:30;;;;;;;14.10;5.40;;;12.40;99.90;;;;;;5033873;28;20033;-94
2023/08/05 01:56:57;;;;;;;11.90;5.22;;;12.40;99.90;;;;;;5033825;28;20556;-93
2023/08/05 01:59:22;;;;;;;10.00;4.47;;;12.50;99.90;;;;;;5033631;28;20108;-93
2023/08/05 02:01:48;;;;;;;19.33;6.25;;;12.50;99.90;;;;;;5033547;28;20509;-93
2023/08/05 02:04:15;;;;;;;10.40;4.32;;;12.50;99.90;;;;;;5033330;28;20039;-93
2023/08/05 02:06:41;;;;;;;14.32;5.30;;;12.60;99.90;;;;;;5033090;28;20462;-93
2023/08/05 02:09:07;;;;;;;17.45;5.63;;;12.60;99.90;;;;;;5033853;28;20491;-95
2023/08/05 02:11:33;;;;;;;11.85;5.18;;;12.50;99.90;;;;;;5034320;28;20380;-93
2023/08/05 02:13:59;;;;;;;14.15;4.72;;;12.50;99.90;;;;;;5033728;28;20041;-93
2023/08/05 02:16:25;;;;;;;11.60;4.40;;;12.50;99.90;;;;;;5033193;28;20053;-93
2023/08/05 02:18:52;;;;;;;8.70;5.03;;;12.50;99.90;;;;;;5033568;28;20048;-93
2023/08/05 02:21:20;;;;;;;17.83;4.88;;;12.50;99.90;;;;;;5033121;28;20483;-93
2023/08/05 02:23:45;;;;;;;15.18;4.88;;;12.50;99.90;;;;;;5033117;28;20045;-93
2023/08/05 02:26:11;;;;;;;15.10;4.85;;;12.50;99.90;;;;;;5033180;28;20040;-94
2023/08/05 02:28:37;;;;;;;12.32;4.60;;;12.50;99.90;;;;;;5033028;28;20030;-93
2023/08/05 02:31:02;;;;;;;10.95;4.13;;;12.50;99.90;;;;;;5033159;28;20499;-95
2023/08/05 02:33:28;;;;;;;12.93;4.97;;;12.50;99.90;;;;;;5032889;28;20465;-93
2023/08/05 02:35:58;;;;;;;15.95;5.57;;;12.50;99.90;;;;;;5033655;28;20026;-93
2023/08/05 02:38:23;;;;;;;12.05;5.53;;;12.50;99.90;;;;;;5032925;28;20026;-94
2023/08/05 02:40:49;;;;;;;11.10;5.13;;;12.40;99.90;;;;;;5032920;28;20037;-93
2023/08/05 02:43:15;;;;;;;15.65;4.88;;;12.30;99.90;;;;;;5032574;28;20029;-93
2023/08/05 02:45:41;;;;;;;14.02;5.13;;;12.30;99.90;;;;;;5032503;28;20046;-92
2023/08/05 02:48:07;;;;;;;13.82;5.60;;;12.30;99.90;;;;;;5032914;28;20017;-94
2023/08/05 02:50:33;;;;;;;14.15;5.45;;;12.20;99.90;;;;;;5032023;28;20049;-93
2023/08/05 02:52:58;;;;;;;12.52;5.00;;;12.20;99.90;;;;;;5032853;28;20059;-93
2023/08/05 02:55:24;;;;;;;20.67;7.15;;;12.20;99.90;;;;;;5034486;28;20104;-93
2023/08/05 02:57:50;;;;;;;14.55;5.30;;;12.20;99.90;;;;;;5034512;28;20047;-92
2023/08/05 03:00:15;;;;;;;15.35;5.47;;;12.20;99.90;;;;;;5054823;28;20037;-94
2023/08/05 03:02:41;;;;;;;16.55;5.50;;;12.20;99.90;;;;;;5035674;28;20075;-94
2023/08/05 03:05:07;;;;;;;9.38;4.75;;;12.20;99.90;;;;;;5034285;28;20048;-94
2023/08/05 03:07:33;;;;;;;13.07;5.13;;;12.20;99.90;;;;;;5032965;28;20059;-93
2023/08/05 03:09:58;;;;;;;16.15;5.65;;;12.20;99.90;;;;;;5032956;28;20125;-96
2023/08/05 03:12:24;;;;;;;14.20;4.95;;;12.20;99.90;;;;;;5035731;28;20084;-94
2023/08/05 03:14:51;;;;;;;13.48;5.40;;;12.10;99.90;;;;;;5038080;28;20025;-94
2023/08/05 03:17:17;;;;;;;11.38;5.13;;;12.10;99.90;;;;;;5044044;28;20025;-93
2023/08/05 03:19:43;;;;;;;13.02;4.85;;;12.10;99.90;;;;;;5048553;28;20463;-94
2023/08/05 03:22:09;;;;;;;11.25;4.90;;;12.20;99.90;;;;;;5051073;28;20044;-93
2023/08/05 03:24:35;;;;;;;14.18;5.20;;;12.20;99.90;;;;;;5047636;28;20049;-94
2023/08/05 03:27:01;;;;;;;19.83;4.80;;;12.10;99.90;;;;;;5043476;28;20072;-94
2023/08/05 03:29:26;;;;;;;16.63;5.60;;;12.10;99.90;;;;;;5039450;28;20036;-94
2023/08/05 03:31:53;;;;;;;13.50;5.45;;;12.20;99.90;;;;;;5040776;28;20028;-93
2023/08/05 03:34:18;;;;;;;11.25;4.80;;;12.20;99.90;;;;;;5037347;28;20022;-94
2023/08/05 03:36:44;;;;;;;12.23;5.32;;;12.20;99.90;;;;;;5035923;28;20040;-93
2023/08/05 03:39:10;;;;;;;10.70;4.82;;;12.20;99.90;;;;;;5033437;28;20087;-95
2023/08/05 03:41:35;;;;;;;15.98;4.93;;;12.20;99.90;;;;;;5033086;28;20045;-94
2023/08/05 03:44:01;;;;;;;13.65;5.13;;;12.20;99.90;;;;;;5033071;28;20036;-94
2023/08/05 03:46:28;;;;;;;8.95;4.80;;;12.20;99.90;;;;;;5032867;28;20036;-94
2023/08/05 03:48:55;;;;;;;13.60;6.00;;;12.20;99.90;;;;;;5032702;28;20018;-94
2023/08/05 03:51:22;;;;;;;18.05;6.35;;;12.20;99.90;;;;;;5032863;28;20029;-94
2023/08/05 03:53:49;;;;;;;12.90;5.20;;;12.20;99.90;;;;;;5032682;28;20025;-93
2023/08/05 03:56:19;;;;;;;15.07;5.07;;;12.20;99.90;;;;;;5016455;28;20026;-94
2023/08/05 03:58:46;;;;;;;15.20;5.18;;;12.20;99.90;;;;;;5032430;28;20501;-93
2023/08/05 04:01:14;;;;;;;15.10;5.20;;;12.20;99.90;;;;;;5033614;28;20564;-93
2023/08/05 04:03:42;;;;;;;16.63;5.15;;;12.20;99.90;;;;;;5036087;28;20029;-95
2023/08/05 04:06:11;;;;;;;13.88;5.07;;;12.20;99.90;;;;;;5035806;28;20517;-93
2023/08/05 04:08:38;;;;;;;13.20;5.10;;;12.20;99.90;;;;;;5035734;28;20034;-95
2023/08/05 04:11:05;;;;;;;13.73;5.30;;;12.10;99.90;;;;;;5036008;28;20470;-94
2023/08/05 04:13:33;;;;;;;13.20;5.43;;;12.10;99.90;;;;;;5036419;28;20022;-95
2023/08/05 04:16:03;;;;;;;19.02;6.15;;;12.00;99.90;;;;;;5018903;28;20037;-94
2023/08/05 04:18:38;;;;;;;14.80;6.18;;;12.00;99.90;;;;;;5035124;28;20061;-95
2023/08/05 04:21:04;;;;;;;15.70;5.78;;;12.00;99.90;;;;;;5036273;28;20025;-96
2023/08/05 04:23:34;;;;;;;18.38;7.07;;;12.00;99.90;;;;;;5036180;28;20045;-96
2023/08/05 04:26:01;;;;;;;15.57;6.10;;;12.00;99.90;;;;;;5020406;28;20499;-96
2023/08/05 04:28:27;;;;;;;13.30;5.55;;;12.00;99.90;;;;;;5037593;28;20025;-96
2023/08/05 04:30:53;;;;;;;12.65;6.22;;;11.90;99.90;;;;;;5041597;28;20109;-95
2023/08/05 04:33:19;;;;;;;20.20;6.50;;;11.90;99.90;;;;;;5047711;28;20072;-95
2023/08/05 04:35:49;;;;;;;16.90;6.25;;;12.00;99.90;;;;;;5041103;28;20509;-94
2023/08/05 04:38:15;;;;;;;16.05;6.13;;;12.00;99.90;;;;;;5047836;28;20513;-96
2023/08/05 04:40:41;;;;;;;15.60;6.47;;;12.00;99.90;;;;;;5051319;28;20037;-90
2023/08/05 04:43:07;;;;;;;16.40;6.78;;;12.00;99.90;;;;;;5059058;28;20017;-90
2023/08/05 04:45:34;;;;;;;17.25;6.47;;;12.00;99.90;;;;;;5058405;28;20047;-94
2023/08/05 04:48:00;;;;;;;18.08;6.63;;;11.90;99.90;;;;;;5059295;28;20006;-91
2023/08/05 04:50:26;;;;;;;16.95;6.75;;;11.90;99.90;;;;;;5059116;28;20033;-93
2023/08/05 04:52:51;;;;;;;14.82;6.72;;;11.90;99.90;;;;;;5049615;28;20026;-94
2023/08/05 04:55:17;;;;;;;17.73;7.18;;;12.00;99.90;;;;;;5048135;28;20037;-94
2023/08/05 04:57:44;;;;;;;22.05;6.80;;;12.00;99.90;;;;;;5043304;28;20084;-95
2023/08/05 05:00:10;;;;;;;19.85;7.18;;;12.00;99.90;;;;;;5043224;28;20026;-95
2023/08/05 05:02:38;;;;;;;17.38;7.57;;;12.00;99.90;;;;;;5037486;28;20026;-95
2023/08/05 05:05:04;;;;;;;19.80;7.00;;;11.90;99.90;;;;;;5036004;28;20055;-94
2023/08/05 05:07:30;;;;;;;14.57;5.28;;;11.80;99.90;;;;;;5035922;28;20025;-94
2023/08/05 05:09:56;;;;;;;15.82;6.18;;;11.80;99.90;;;;;;5038225;28;20037;-94
2023/08/05 05:12:21;;;;;;;16.42;6.53;;;11.70;99.90;;;;;;5036669;28;20021;-95
2023/08/05 05:14:47;;;;;;;14.07;5.88;;;11.70;99.90;;;;;;5035445;28;20071;-95
2023/08/05 05:17:17;;;;;;;17.80;6.88;;;11.70;99.90;;;;;;5036212;28;20022;-93
2023/08/05 05:19:45;;;;;;;19.48;6.28;;;11.70;99.90;;;;;;5036634;28;20025;-95
2023/08/05 05:22:18;;;;;;;13.57;5.90;;;11.70;99.90;;;;;;5035787;28;20487;-93
2023/08/05 05:24:48;;;;;;;14.98;5.88;;;11.70;99.90;;;;;;5035413;28;20041;-95
2023/08/05 05:27:14;;;;;;;14.40;5.82;;;11.60;99.90;;;;;;5034668;28;20108;-94
2023/08/05 05:29:41;;;;;;;18.90;7.28;;;11.60;99.90;;;;;;5034650;28;20033;-95
2023/08/05 05:32:07;;;;;;;14.25;5.40;;;11.70;99.90;;;;;;5035280;28;20018;-96
2023/08/05 05:34:32;;;;;;;13.82;6.40;;;11.70;99.90;;;;;;5035056;28;20034;-94
2023/08/05 05:36:58;;;;;;;13.20;5.85;;;11.60;99.90;;;;;;5040533;28;20017;-94
2023/08/05 05:39:24;;;;;;;14.95;5.90;;;11.60;99.90;;;;;;5045768;28;20033;-95
2023/08/05 05:41:49;;;;;;;16.63;6.50;;;11.70;99.90;;;;;;5025356;28;20034;-95
2023/08/05 05:44:15;;;;;;;14.65;6.13;;;11.70;99.90;;;;;;5044739;28;20045;-95
2023/08/05 05:46:43;;;;;;;16.05;5.95;;;11.60;99.90;;;;;;5052130;28;20040;-95
2023/08/05 05:49:10;;;;;;;11.48;6.22;;;11.70;99.90;;;;;;5049218;28;20049;-95
2023/08/05 05:51:36;;;;;;;15.32;6.43;;;11.70;99.90;;;;;;5041107;28;20021;-95
2023/08/05 05:54:02;;;;;;;18.67;7.15;;;11.80;99.90;;;;;;5038623;28;20446;-94
2023/08/05 05:56:28;;;;;;;18.20;6.90;;;11.80;99.90;;;;;;5041562;28;20022;-95
2023/08/05 05:58:54;;;;;;;16.48;7.35;;;11.80;99.90;;;;;;5049972;28;20068;-94
2023/08/05 06:01:20;;;;;;;14.35;6.82;;;11.80;99.90;;;;;;5050209;28;20029;-95
2023/08/05 06:03:46;;;;;;;23.67;7.53;;;11.80;99.90;;;;;;5042202;28;20537;-95
2023/08/05 06:06:12;;;;;;;20.73;7.32;;;11.90;99.90;;;;;;5038744;28;20037;-94
2023/08/05 06:08:38;;;;;;;16.85;6.47;;;11.90;99.90;;;;;;5037021;28;20105;-95
2023/08/05 06:11:04;;;;;;;14.10;6.35;;;11.90;99.90;;;;;;5035315;28;20060;-95
2023/08/05 06:13:30;;;;;;;14.70;6.50;;;11.90;99.90;;;;;;5034432;28;20029;-95
2023/08/05 06:15:56;;;;;;;16.35;6.32;;;11.90;99.90;;;;;;5034121;28;20087;-94
2023/08/05 06:18:22;;;;;;;15.23;6.05;;;11.80;99.90;;;;;;5033974;28;20025;-96
2023/08/05 06:20:48;;;;;;;19.77;6.47;;;11.80;99.90;;;;;;5033953;28;20021;-95
2023/08/05 06:23:14;;;;;;;15.93;6.38;;;11.90;99.90;;;;;;5033634;28;20045;-95
2023/08/05 06:25:41;;;;;;;16.45;5.63;;;11.90;99.90;;;;;;5034108;28;20083;-95
2023/08/05 06:28:06;;;;;;;18.73;5.80;;;11.90;99.90;;;;;;5039782;28;20021;-95
2023/08/05 06:30:33;;;;;;;15.00;4.93;;;12.00;99.90;;;;;;5052587;28;20057;-95
2023/08/05 06:32:59;;;;;;;13.80;5.50;;;12.00;99.90;;;;;;5052269;28;20022;-95
2023/08/05 06:35:25;;;;;;;9.43;4.78;;;12.00;99.90;;;;;;5050423;28;20097;-95
2023/08/05 06:37:51;;;;;;;11.70;5.53;;;12.10;99.90;;;;;;5047401;28;20382;-95
2023/08/05 06:40:16;;;;;;;8.93;4.80;;;12.10;99.90;;;;;;5040245;28;20112;-93
2023/08/05 06:42:42;;;;;;;11.88;4.43;;;12.10;99.90;;;;;;5038732;28;20051;-94
2023/08/05 06:45:08;;;;;;;12.55;4.20;;;12.10;99.90;;;;;;5037146;28;20048;-95
2023/08/05 06:47:35;;;;;;;14.50;5.22;;;12.10;99.90;;;;;;5033390;28;20435;-96
2023/08/05 06:50:04;;;;;;;15.25;4.68;;;12.10;99.90;;;;;;5033719;28;20036;-95
2023/08/05 06:52:30;;;;;;;10.73;4.15;;;12.10;99.90;;;;;;5033776;28;20021;-94
2023/08/05 06:54:57;;;;;;;7.50;4.07;;;12.10;99.90;;;;;;5034130;28;20040;-94
2023/08/05 06:57:23;;;;;;;10.93;4.20;;;12.00;99.90;;;;;;5034218;28;20486;-94
2023/08/05 06:59:49;;;;;;;11.23;4.57;;;12.00;99.90;;;;;;5034062;28;20040;-94
2023/08/05 07:02:14;;;;;;;12.60;4.07;;;12.00;99.90;;;;;;5033178;28;20071;-94
2023/08/05 07:04:40;;;;;;;9.70;4.10;;;12.10;99.90;;;;;;5032873;28;20116;-94
2023/08/05 07:07:06;;;;;;;13.10;5.03;;;12.10;99.90;;;;;;5033136;28;20032;-94
2023/08/05 07:09:32;;;;;;;10.93;4.30;;;12.20;99.90;;;;;;5033030;28;20505;-94
2023/08/05 07:11:57;;;;;;;10.10;4.35;;;12.20;99.90;;;;;;5032655;28;20021;-94
2023/08/05 07:14:23;;;;;;;7.55;4.22;;;12.20;99.90;;;;;;5034269;28;20040;-94
2023/08/05 07:16:49;;;;;;;10.20;4.85;;;12.30;99.90;;;;;;5033247;28;20036;-94
2023/08/05 07:19:15;;;;;;;10.30;3.88;;;12.30;99.90;;;;;;5033047;28;20383;-95
2023/08/05 07:21:40;;;;;;;14.50;4.43;;;12.30;99.90;;;;;;5033219;28;20022;-93
2023/08/05 07:24:06;;;;;;;14.23;4.70;;;12.30;99.90;;;;;;5032764;28;20049;-94
2023/08/05 07:26:32;;;;;;;10.10;4.55;;;12.20;99.90;;;;;;5034902;28;20042;-93
2023/08/05 07:28:57;;;;;;;16.33;5.40;;;12.20;99.90;;;;;;5033246;28;20044;-94
2023/08/05 07:31:23;;;;;;;14.25;5.22;;;12.20;99.90;;;;;;5032742;28;20034;-95
2023/08/05 07:33:49;;;;;;;15.73;5.20;;;12.20;99.90;;;;;;5032953;28;20026;-93
2023/08/05 07:36:22;;;;;;;12.80;4.82;;;12.20;99.90;;;;;;5034556;28;20029;-94
2023/08/05 07:38:50;;;;;;;12.75;5.40;;;12.10;99.90;;;;;;5037266;28;20034;-95
2023/08/05 07:41:16;;;;;;;13.73;5.50;;;12.10;99.90;;;;;;5040444;28;20026;-95
2023/08/05 07:43:42;;;;;;;19.45;5.72;;;12.20;99.90;;;;;;5040779;28;20072;-94
2023/08/05 07:46:11;;;;;;;10.68;5.20;;;12.20;99.90;;;;;;5036600;28;20033;-95
2023/08/05 07:48:39;;;;;;;16.25;5.72;;;12.20;99.90;;;;;;5036121;28;20022;-93
2023/08/05 07:51:06;;;;;;;14.65;5.65;;;12.20;99.90;;;;;;5035988;28;20021;-93
2023/08/05 07:53:36;;;;;;;14.38;5.22;;;12.20;99.90;;;;;;5036068;28;20029;-93
2023/08/05 07:56:09;;;;;;;11.63;5.57;;;12.20;99.90;;;;;;5035992;28;20032;-94
2023/08/05 07:58:35;;;;;;;13.25;4.85;;;12.20;99.90;;;;;;5035940;28;20033;-94
2023/08/05 08:01:01;;;;;;;13.90;4.90;;;12.20;99.90;;;;;;5035839;28;20033;-94
2023/08/05 08:03:29;;;;;;;10.27;5.25;;;12.20;99.90;;;;;;5035767;28;20026;-94
2023/08/05 08:05:55;;;;;;;12.75;4.85;;;12.10;99.90;;;;;;5035636;28;20034;-93
2023/08/05 08:08:21;;;;;;;14.82;5.63;;;12.10;99.90;;;;;;5035733;28;20562;-94
2023/08/05 08:10:47;;;;;;;11.75;5.22;;;12.10;99.90;;;;;;5035512;28;20030;-93
2023/08/05 08:13:12;;;;;;;11.07;6.03;;;12.10;99.90;;;;;;5035586;28;20032;-94
2023/08/05 08:15:38;;;;;;;11.02;5.40;;;12.10;99.90;;;;;;5036210;28;20034;-95
2023/08/05 08:18:04;;;;;;;10.48;4.47;;;12.10;99.90;;;;;;5035942;28;20021;-93
2023/08/05 08:20:29;;;;;;;12.27;5.35;;;12.10;99.90;;;;;;5036185;28;20034;-94
2023/08/05 08:22:55;;;;;;;8.75;5.18;;;12.10;99.90;;;;;;5036306;28;20116;-94
2023/08/05 08:25:21;;;;;;;10.15;4.65;;;12.10;99.90;;;;;;5041056;28;20071;-94
2023/08/05 08:27:46;;;;;;;10.00;4.75;;;12.10;99.90;;;;;;5037297;28;20091;-95
2023/08/05 08:30:12;;;;;;;10.10;4.80;;;12.10;99.90;;;;;;5035724;28;20071;-93
2023/08/05 08:32:38;;;;;;;9.52;3.85;;;12.10;99.90;;;;;;5035508;28;20032;-95
2023/08/05 08:35:04;;;;;;;9.73;4.15;;;12.00;99.90;;;;;;5035769;28;20029;-93
2023/08/05 08:37:30;;;;;;;7.10;4.00;;;12.10;99.90;;;;;;5035896;28;20398;-94
2023/08/05 08:39:56;;;;;;;11.13;3.95;;;12.00;99.90;;;;;;5035557;28;20029;-94
2023/08/05 08:42:25;;;;;;;7.28;3.40;;;12.00;99.90;;;;;;5035914;28;20060;-92
2023/08/05 08:44:52;;;;;;;9.55;3.70;;;12.00;99.90;;;;;;5035415;28;20095;-94
2023/08/05 08:47:19;;;;;;;8.50;3.63;;;11.90;99.90;;;;;;5034426;28;20029;-95
2023/08/05 08:49:46;;;;;;;7.75;3.17;;;11.90;99.90;;;;;;5035448;28;20021;-94
2023/08/05 08:52:17;;;;;;;8.02;3.42;;;11.80;99.90;;;;;;5036254;28;20021;-94
2023/08/05 08:54:43;;;;;;;7.80;3.70;;;11.80;99.90;;;;;;5036302;28;20033;-93
2023/08/05 08:57:11;;;;;;;8.70;3.35;;;11.80;99.90;;;;;;5038201;28;20025;-94
2023/08/05 08:59:37;;;;;;;10.23;3.92;;;11.80;99.90;;;;;;5037423;28;20068;-93
2023/08/05 09:02:08;;;;;;;7.75;3.78;;;11.80;99.90;;;;;;5035455;28;20022;-92
2023/08/05 09:04:35;;;;;;;7.30;4.15;;;11.80;99.90;;;;;;5034550;28;20071;-92
2023/08/05 09:07:01;;;;;;;8.98;4.00;;;11.80;99.90;;;;;;5037410;28;20120;-92
2023/08/05 09:09:29;;;;;;;8.43;3.53;;;11.90;99.90;;;;;;5034785;28;20021;-93
2023/08/05 09:11:57;;;;;;;9.40;3.67;;;11.90;99.90;;;;;;5035137;28;20033;-92
2023/08/05 09:14:22;;;;;;;9.68;3.90;;;11.90;99.90;;;;;;5035466;28;20029;-92
2023/08/05 09:17:00;;;;;;;7.30;3.58;;;11.80;99.90;;;;;;5034441;28;20029;-93
2023/08/05 09:19:27;;;;;;;7.43;4.22;;;11.80;99.90;;;;;;5035335;28;20018;-93
2023/08/05 09:21:56;;;;;;;7.25;3.40;;;11.90;99.90;;;;;;5035143;28;20025;-93
2023/08/05 09:24:25;;;;;;;8.07;3.58;;;11.90;99.90;;;;;;5039211;28;20495;-94
2023/08/05 09:26:59;;;;;;;7.07;4.13;;;11.90;99.90;;;;;;5040720;28;20125;-94
2023/08/05 09:29:26;;;;;;;8.98;3.83;;;11.90;99.90;;;;;;5049224;28;20021;-92
2023/08/05 09:31:54;;;;;;;11.93;4.35;;;11.90;99.90;;;;;;5055503;28;20096;-93
2023/08/05 09:34:20;;;;;;;10.93;5.10;;;11.90;99.90;;;;;;5056021;28;20021;-92
2023/08/05 09:36:49;;;;;;;7.10;4.03;;;11.90;99.90;;;;;;5056923;28;20060;-93
2023/08/05 09:39:16;;;;;;;9.57;3.53;;;12.00;99.90;;;;;;5051575;28;20116;-94
2023/08/05 09:41:51;;;;;;;6.97;3.45;;;12.00;99.90;;;;;;5047519;28;20040;-92
2023/08/05 09:44:17;;;;;;;6.38;3.30;;;12.00;99.90;;;;;;5047637;28;20128;-93
2023/08/05 09:46:46;;;;;;;8.00;4.70;;;12.10;99.90;;;;;;5046411;28;20093;-93
2023/08/05 09:49:14;;;;;;;8.02;3.97;;;12.10;99.90;;;;;;5045368;28;20113;-92
2023/08/05 09:51:42;;;;;;;8.52;4.10;;;12.10;99.90;;;;;;5039103;28;20120;-94
2023/08/05 09:54:12;;;;;;;6.82;3.80;;;12.20;99.90;;;;;;5036944;28;20021;-93
2023/08/05 09:56:40;;;;;;;7.75;4.07;;;12.20;99.90;;;;;;5035551;28;20025;-93
2023/08/05 09:59:08;;;;;;;6.82;4.18;;;12.30;99.90;;;;;;5034891;28;20079;-94
2023/08/05 10:01:36;;;;;;;7.20;3.88;;;12.30;99.90;;;;;;5035484;28;20022;-92
2023/08/05 10:04:03;;;;;;;8.00;3.45;;;12.30;99.90;;;;;;5034854;28;20032;-93
2023/08/05 10:06:30;;;;;;;8.40;3.70;;;12.40;99.90;;;;;;5037157;28;20025;-92
2023/08/05 10:08:57;;;;;;;6.55;3.33;;;12.40;99.90;;;;;;5037778;28;20026;-94
2023/08/05 10:11:24;;;;;;;8.50;3.65;;;12.50;99.90;;;;;;5035700;28;20040;-92
2023/08/05 10:13:53;;;;;;;6.93;3.47;;;12.50;99.90;;;;;;5036626;28;20029;-91
2023/08/05 10:16:19;;;;;;;8.10;3.50;;;12.60;99.90;;;;;;5037289;28;20108;-92
2023/08/05 10:18:46;;;;;;;6.82;3.85;;;12.60;99.90;;;;;;5036808;28;20025;-92
2023/08/05 10:21:12;;;;;;;7.03;3.20;;;12.60;99.90;;;;;;5035480;28;20028;-93
2023/08/05 10:23:38;;;;;;;5.03;3.45;;;12.70;99.90;;;;;;5038996;28;20053;-93
2023/08/05 10:26:05;;;;;;;4.35;2.78;;;12.70;99.90;;;;;;5034777;28;20040;-92
2023/08/05 10:28:33;;;;;;;5.80;3.42;;;12.70;99.90;;;;;;5036145;28;20029;-93
2023/08/05 10:31:03;;;;;;;4.88;2.78;;;12.80;99.90;;;;;;5036997;28;20482;-93
2023/08/05 10:33:29;;;;;;;7.43;3.87;;;12.90;99.90;;;;;;5034319;28;20021;-92
2023/08/05 10:36:07;;;;;;;5.05;2.92;;;13.00;99.90;;;;;;5033653;28;20260;-93
2023/08/05 10:38:43;;;;;;;6.97;3.10;;;13.10;99.90;;;;;;5033790;28;20021;-92
2023/08/05 10:41:10;;;;;;;4.20;2.67;;;13.30;99.90;;;;;;5033633;28;20033;-93
2023/08/05 10:43:41;;;;;;;6.10;3.17;;;13.30;99.90;;;;;;5033308;28;20105;-93
2023/08/05 10:46:07;;;;;;;5.03;2.78;;;13.50;99.90;;;;;;5033452;28;20115;-93
2023/08/05 10:48:48;;;;;;;5.40;3.10;;;13.50;99.90;;;;;;5033156;28;20052;-93
2023/08/05 10:51:19;;;;;;;6.15;3.30;;;13.60;99.90;;;;;;5035404;28;20025;-92
2023/08/05 10:53:59;;;;;;;6.30;3.25;;;13.60;99.90;;;;;;5035921;28;20029;-93
2023/08/05 10:56:31;;;;;;;5.05;3.22;;;13.70;99.90;;;;;;5033081;28;20033;-94
2023/08/05 10:58:59;;;;;;;5.00;3.38;;;13.90;99.90;;;;;;5033253;28;20028;-94
2023/08/05 11:01:55;;;;;;;6.65;3.47;;;13.90;99.90;;;;;;5033386;28;20022;-93
2023/08/05 11:04:28;;;;;;;5.85;3.55;;;14.00;99.90;;;;;;5033351;28;20049;-93
2023/08/05 11:06:54;;;;;;;6.90;4.28;;;14.10;99.90;;;;;;5034006;28;20107;-92
2023/08/05 11:09:30;;;;;;;6.70;3.70;;;14.10;99.90;;;;;;5034130;28;20021;-93
2023/08/05 11:11:55;;;;;;;7.25;3.70;;;14.10;99.90;;;;;;5032381;28;20109;-94
2023/08/05 11:14:23;;;;;;;6.60;3.95;;;14.10;99.90;;;;;;5033099;28;20477;-93
2023/08/05 11:16:48;;;;;;;9.30;4.13;;;14.10;99.90;;;;;;5034298;28;20120;-93
2023/08/05 11:19:17;;;;;;;6.05;4.07;;;14.10;99.90;;;;;;5034584;28;20061;-93
2023/08/05 11:21:44;;;;;;;8.32;3.40;;;14.20;99.90;;;;;;5034984;28;20136;-94
2023/08/05 11:24:20;;;;;;;7.32;3.55;;;14.20;99.90;;;;;;5032531;28;20109;-94
2023/08/05 11:26:49;;;;;;;6.82;3.80;;;14.20;99.90;;;;;;5032809;28;20033;-93
2023/08/05 11:29:15;;;;;;;5.70;3.60;;;14.20;99.90;;;;;;5035120;28;20034;-92
2023/08/05 11:31:51;;;;;;;10.60;4.20;;;14.30;99.90;;;;;;5017261;28;20026;-93
2023/08/05 11:34:26;;;;;;;7.03;3.60;;;14.30;99.90;;;;;;5032434;28;20117;-92
2023/08/05 11:36:55;;;;;;;6.97;3.67;;;14.50;99.90;;;;;;5032288;28;20068;-93
2023/08/05 11:39:25;;;;;;;7.60;3.60;;;14.60;99.90;;;;;;5032126;28;20474;-93
2023/08/05 11:41:52;;;;;;;5.82;3.70;;;14.60;99.90;;;;;;5031986;28;20641;-93
2023/08/05 11:44:18;;;;;;;6.57;3.67;;;14.70;99.90;;;;;;5032120;28;20049;-92
2023/08/05 11:46:43;;;;;;;7.00;3.97;;;14.80;99.90;;;;;;5032046;28;20026;-93
2023/08/05 11:49:13;;;;;;;5.63;3.35;;;14.90;99.90;;;;;;5035703;28;20033;-93
2023/08/05 11:51:52;;;;;;;6.47;3.67;;;15.10;99.90;;;;;;5035485;28;20483;-93
2023/08/05 11:54:30;;;;;;;6.95;3.47;;;15.20;99.90;;;;;;5034037;28;20022;-92
2023/08/05 11:56:58;;;;;;;8.68;3.55;;;15.20;99.90;;;;;;5034128;28;20096;-93
2023/08/05 11:59:44;;;;;;;6.93;3.35;;;15.30;99.90;;;;;;5039618;28;20025;-93
2023/08/05 12:02:14;;;;;;;5.57;3.80;;;15.30;99.90;;;;;;5036481;28;20025;-93
2023/08/05 12:04:48;;;;;;;4.75;3.30;;;15.40;99.90;;;;;;5032603;28;20034;-93
2023/08/05 12:07:21;;;;;;;7.28;4.20;;;15.40;99.90;;;;;;5034620;28;20041;-94
2023/08/05 12:10:09;;;;;;;5.50;3.20;;;15.30;99.90;;;;;;5033774;28;20025;-93
2023/08/05 12:12:45;;;;;;;5.28;3.03;;;15.30;99.90;;;;;;5032671;28;20024;-93
2023/08/05 12:15:12;;;;;;;5.38;3.40;;;15.20;99.90;;;;;;5032070;28;20199;-94
2023/08/05 12:17:43;;;;;;;6.70;3.28;;;15.20;99.90;;;;;;5032374;28;20033;-93
2023/08/05 12:20:10;;;;;;;7.90;3.45;;;15.10;99.90;;;;;;5032470;28;20026;-94
2023/08/05 12:22:36;;;;;;;5.35;3.60;;;15.10;99.90;;;;;;5034348;28;20088;-93
2023/08/05 12:25:06;;;;;;;8.15;3.40;;;15.10;99.90;;;;;;5035854;28;20033;-94
2023/08/05 12:27:34;;;;;;;5.70;3.08;;;15.20;99.90;;;;;;5037043;28;20127;-94
2023/08/05 12:30:01;;;;;;;7.57;3.60;;;15.20;99.90;;;;;;5036150;28;20033;-94
2023/08/05 12:32:26;;;;;;;7.10;3.47;;;15.30;99.90;;;;;;5018756;28;20045;-93
2023/08/05 12:34:52;;;;;;;6.40;3.45;;;15.30;99.90;;;;;;5041653;28;20044;-95
2023/08/05 12:37:18;;;;;;;6.80;3.75;;;15.30;99.90;;;;;;5042379;28;20056;-94
2023/08/05 12:39:49;;;;;;;5.82;3.60;;;15.30;99.90;;;;;;5044019;28;20026;-94
2023/08/05 12:42:15;;;;;;;8.13;3.70;;;15.40;99.90;;;;;;5044287;28;20021;-92